Time;durP1;ratioP1;P1;durP2;ratioP2;P2;SDS_P1;SDS_P2;PMS_P1;PMS_P2;Temp;Humidity;BMP_temperature;BMP_pressure;BME280_temperature;BME280_humidity;BME280_pressure;Samples;Min_cycle;Max_cycle;Signal;HPM_P1;HPM_P2
2022/01/13 00:00:54;;;;;;;;;;;;;;;;;;5139787;27;19919;-76
2022/01/13 00:03:19;;;;;;;;;;;;;;;;;;5104419;27;20351;-76
2022/01/13 00:05:45;;;;;;;;;;;;;;;;;;5126326;27;20491;-75
2022/01/13 00:08:11;;;;;;;;;;;;;;;;;;5106352;27;19915;-75
2022/01/13 00:10:36;;;;;;;;;;;;;;;;;;5140231;27;19916;-75
2022/01/13 00:13:06;;;;;;;;;;;;;;;;;;5122156;27;20002;-75
2022/01/13 00:15:49;;;;;;;;;;;;;;;;;;5122301;27;19916;-75
2022/01/13 00:18:35;;;;;;;;;;;;;;;;;;5140864;27;19916;-75
2022/01/13 00:22:14;;;;;;;;;;;;;;;;;;5122169;27;19915;-75
2022/01/13 00:23:59;;;;;;;;;;;;;;;;;;5126585;27;20327;-75
2022/01/13 00:26:26;;;;;;;;;;;;;;;;;;5140464;27;20008;-75
2022/01/13 00:28:53;;;;;;;;;;;;;;;;;;5140679;27;19923;-75
2022/01/13 00:31:24;;;;;;;;;;;;;;;;;;5140350;27;19923;-75
2022/01/13 00:33:54;;;;;;;;;;;;;;;;;;5140084;27;19924;-75
2022/01/13 00:36:20;;;;;;;;;;;;;;;;;;5120925;27;19921;-75
2022/01/13 00:38:45;;;;;;;;;;;;;;;;;;5120255;27;19916;-75
2022/01/13 00:41:10;;;;;;;;;;;;;;;;;;5138918;27;20414;-75
2022/01/13 00:43:39;;;;;;;;;;;;;;;;;;5120826;27;19916;-75
2022/01/13 00:46:05;;;;;;;;;;;;;;;;;;5139286;27;19915;-75
2022/01/13 00:48:30;;;;;;;;;;;;;;;;;;5138175;27;19926;-75
2022/01/13 00:50:55;;;;;;;;;;;;;;;;;;5139382;27;19915;-75
2022/01/13 00:53:21;;;;;;;;;;;;;;;;;;5138959;27;19965;-75
2022/01/13 00:55:58;;;;;;;;;;;;;;;;;;5139364;27;19911;-75
2022/01/13 00:58:33;;;;;;;;;;;;;;;;;;5120491;27;19962;-75
2022/01/13 01:00:59;;;;;;;;;;;;;;;;;;5138700;27;19978;-75
2022/01/13 01:03:25;;;;;;;;;;;;;;;;;;5138285;27;20373;-75
2022/01/13 01:05:50;;;;;;;;;;;;;;;;;;5121465;27;19916;-75
2022/01/13 01:08:16;;;;;;;;;;;;;;;;;;5120938;27;19966;-75
2022/01/13 01:10:42;;;;;;;;;;;;;;;;;;5139530;27;19920;-75
2022/01/13 01:13:12;;;;;;;;;;;;;;;;;;5121154;27;19960;-75
2022/01/13 01:15:41;;;;;;;;;;;;;;;;;;5138852;27;20044;-75
2022/01/13 01:18:19;;;;;;;;;;;;;;;;;;5137474;27;19916;-75
2022/01/13 01:21:32;;;;;;;;;;;;;;;;;;5137638;27;19988;-75
2022/01/13 01:23:33;;;;;;;;;;;;;;;;;;5118515;27;19988;-75
2022/01/13 01:26:05;;;;;;;;;;;;;;;;;;5137609;27;19915;-75
2022/01/13 01:28:41;;;;;;;;;;;;;;;;;;5137375;27;19922;-75
2022/01/13 01:31:06;;;;;;;;;;;;;;;;;;5119343;27;19915;-75
2022/01/13 01:33:32;;;;;;;;;;;;;;;;;;5119456;27;19920;-75
2022/01/13 01:35:58;;;;;;;;;;;;;;;;;;5137075;27;19937;-75
2022/01/13 01:38:23;;;;;;;;;;;;;;;;;;5119591;27;20349;-75
2022/01/13 01:40:49;;;;;;;;;;;;;;;;;;5138099;27;19922;-75
2022/01/13 01:43:14;;;;;;;;;;;;;;;;;;5137971;27;19951;-75
2022/01/13 01:45:48;;;;;;;;;;;;;;;;;;5137793;27;19965;-76
2022/01/13 01:48:19;;;;;;;;;;;;;;;;;;5116388;28;19968;-75
2022/01/13 01:50:53;;;;;;;;;;;;;;;;;;5116652;28;19916;-75
2022/01/13 01:53:18;;;;;;;;;;;;;;;;;;5115565;28;19926;-75
2022/01/13 01:55:45;;;;;;;;;;;;;;;;;;5116579;28;21472;-75
2022/01/13 01:58:11;;;;;;;;;;;;;;;;;;5116123;28;19915;-75
2022/01/13 02:00:36;;;;;;;;;;;;;;;;;;5116256;28;20342;-75
2022/01/13 02:03:03;;;;;;;;;;;;;;;;;;5116066;28;19916;-75
2022/01/13 02:05:29;;;;;;;;;;;;;;;;;;5116558;28;19938;-75
2022/01/13 02:07:54;;;;;;;;;;;;;;;;;;5117202;28;19919;-75
2022/01/13 02:10:20;;;;;;;;;;;;;;;;;;5116084;28;19917;-75
2022/01/13 02:12:49;;;;;;;;;;;;;;;;;;5115143;28;19923;-75
2022/01/13 02:15:30;;;;;;;;;;;;;;;;;;5117023;28;19958;-75
2022/01/13 02:17:56;;;;;;;;;;;;;;;;;;5116482;28;19915;-75
2022/01/13 02:20:22;;;;;;;;;;;;;;;;;;5117627;28;20443;-75
2022/01/13 02:22:47;;;;;;;;;;;;;;;;;;5117846;28;19926;-75
2022/01/13 02:25:14;;;;;;;;;;;;;;;;;;5117365;28;19920;-75
2022/01/13 02:27:39;;;;;;;;;;;;;;;;;;5117618;27;20010;-75
2022/01/13 02:30:04;;;;;;;;;;;;;;;;;;5117705;28;19969;-75
2022/01/13 02:32:30;;;;;;;;;;;;;;;;;;5116848;28;19916;-75
2022/01/13 02:34:55;;;;;;;;;;;;;;;;;;5116220;28;20015;-75
2022/01/13 02:37:20;;;;;;;;;;;;;;;;;;5117059;28;19922;-75
2022/01/13 02:39:46;;;;;;;;;;;;;;;;;;5117853;28;19950;-75
2022/01/13 02:42:14;;;;;;;;;;;;;;;;;;5117036;28;19919;-75
2022/01/13 02:50:07;;;;;;;;;;;;;;;;;;5116588;28;19916;-75
2022/01/13 02:52:34;;;;;;;;;;;;;;;;;;5115976;28;19984;-75
2022/01/13 02:54:59;;;;;;;;;;;;;;;;;;5114944;28;19926;-75
2022/01/13 02:57:25;;;;;;;;;;;;;;;;;;5114166;28;19916;-75
2022/01/13 02:59:50;;;;;;;;;;;;;;;;;;5114006;28;20002;-75
2022/01/13 03:02:16;;;;;;;;;;;;;;;;;;5114854;28;19923;-75
2022/01/13 03:04:45;;;;;;;;;;;;;;;;;;5113681;28;20337;-75
2022/01/13 03:07:11;;;;;;;;;;;;;;;;;;5113140;28;19916;-75
2022/01/13 03:09:36;;;;;;;;;;;;;;;;;;5115496;28;19922;-75
2022/01/13 03:12:01;;;;;;;;;;;;;;;;;;5116419;28;19916;-75
2022/01/13 03:14:27;;;;;;;;;;;;;;;;;;5119524;28;19920;-76
2022/01/13 03:16:52;;;;;;;;;;;;;;;;;;5119378;28;19923;-76
2022/01/13 03:19:17;;;;;;;;;;;;;;;;;;5118745;28;19957;-76
2022/01/13 03:21:43;;;;;;;;;;;;;;;;;;5117890;28;20399;-76
2022/01/13 03:24:11;;;;;;;;;;;;;;;;;;5117950;28;19916;-76
2022/01/13 03:26:37;;;;;;;;;;;;;;;;;;5118043;28;19938;-75
2022/01/13 03:29:26;;;;;;;;;;;;;;;;;;5119142;28;19916;-76
2022/01/13 03:31:49;;;;;;;;;;;;;;;;;;5117468;28;19955;-75
2022/01/13 03:34:15;;;;;;;;;;;;;;;;;;5118297;28;19970;-76
2022/01/13 03:36:41;;;;;;;;;;;;;;;;;;5118284;28;20041;-76
2022/01/13 03:39:07;;;;;;;;;;;;;;;;;;5118360;28;19916;-75
2022/01/13 03:41:33;;;;;;;;;;;;;;;;;;5118406;28;20002;-76
2022/01/13 03:44:05;;;;;;;;;;;;;;;;;;5118271;27;20026;-75
2022/01/13 03:46:30;;;;;;;;;;;;;;;;;;5118190;28;19920;-76
2022/01/13 03:48:55;;;;;;;;;;;;;;;;;;5133545;27;19920;-74
2022/01/13 03:51:21;;;;;;;;;;;;;;;;;;5120032;27;20279;-76
2022/01/13 03:54:13;;;;;;;;;;;;;;;;;;5120399;27;19973;-74
2022/01/13 03:56:53;;;;;;;;;;;;;;;;;;5081010;27;20265;-75
2022/01/13 03:59:34;;;;;;;;;;;;;;;;;;5138008;27;19915;-74
2022/01/13 04:02:09;;;;;;;;;;;;;;;;;;5137196;27;19915;-74
2022/01/13 04:04:38;;;;;;;;;;;;;;;;;;5137994;27;19958;-74
2022/01/13 04:07:05;;;;;;;;;;;;;;;;;;5137674;27;20281;-74
2022/01/13 04:09:33;;;;;;;;;;;;;;;;;;5137570;27;19922;-74
2022/01/13 04:12:03;;;;;;;;;;;;;;;;;;5137667;27;19926;-74
2022/01/13 04:14:37;;;;;;;;;;;;;;;;;;5137791;27;19920;-74
2022/01/13 04:17:02;;;;;;;;;;;;;;;;;;5119269;27;19919;-74
2022/01/13 04:19:28;;;;;;;;;;;;;;;;;;5137644;27;19916;-74
2022/01/13 04:21:54;;;;;;;;;;;;;;;;;;5119170;27;19922;-74
2022/01/13 04:24:19;;;;;;;;;;;;;;;;;;5136453;27;19922;-74
2022/01/13 04:26:45;;;;;;;;;;;;;;;;;;5137484;27;20277;-74
2022/01/13 04:31:36;;;;;;;;;;;;;;;;;;5136644;27;20022;-74
2022/01/13 04:34:01;;;;;;;;;;;;;;;;;;5137383;27;19919;-74
2022/01/13 04:36:27;;;;;;;;;;;;;;;;;;5137264;27;19922;-74
2022/01/13 04:38:53;;;;;;;;;;;;;;;;;;5137305;27;19976;-74
2022/01/13 04:41:34;;;;;;;;;;;;;;;;;;5137257;27;19915;-74
2022/01/13 04:44:00;;;;;;;;;;;;;;;;;;5136970;27;20009;-74
2022/01/13 04:46:25;;;;;;;;;;;;;;;;;;5137249;27;19957;-74
2022/01/13 04:48:51;;;;;;;;;;;;;;;;;;5136933;27;20384;-74
2022/01/13 04:51:16;;;;;;;;;;;;;;;;;;5118756;27;19926;-74
2022/01/13 04:53:41;;;;;;;;;;;;;;;;;;5137014;27;19919;-73
2022/01/13 04:56:14;;;;;;;;;;;;;;;;;;5136773;27;19916;-74
2022/01/13 04:58:39;;;;;;;;;;;;;;;;;;5136845;27;19915;-74
2022/01/13 05:01:05;;;;;;;;;;;;;;;;;;5118565;27;19938;-74
2022/01/13 05:03:30;;;;;;;;;;;;;;;;;;5135948;27;19911;-74
2022/01/13 05:05:55;;;;;;;;;;;;;;;;;;5136735;27;19916;-74
2022/01/13 05:08:21;;;;;;;;;;;;;;;;;;5136858;27;19922;-74
2022/01/13 05:10:46;;;;;;;;;;;;;;;;;;5101326;27;19916;-74
2022/01/13 05:13:12;;;;;;;;;;;;;;;;;;5118060;27;20391;-74
2022/01/13 05:15:39;;;;;;;;;;;;;;;;;;5136651;27;19923;-74
2022/01/13 05:21:06;;;;;;;;;;;;;;;;;;5096647;27;20044;-74
2022/01/13 05:23:32;;;;;;;;;;;;;;;;;;5118209;27;19960;-74
2022/01/13 05:25:57;;;;;;;;;;;;;;;;;;5136491;27;19915;-74
2022/01/13 05:28:23;;;;;;;;;;;;;;;;;;5136218;27;19927;-74
2022/01/13 05:30:49;;;;;;;;;;;;;;;;;;5136207;27;19915;-74
2022/01/13 05:33:14;;;;;;;;;;;;;;;;;;5135969;27;19916;-74
2022/01/13 05:35:40;;;;;;;;;;;;;;;;;;5136040;27;19919;-74
2022/01/13 05:38:05;;;;;;;;;;;;;;;;;;5117722;27;19915;-74
2022/01/13 05:40:31;;;;;;;;;;;;;;;;;;5136027;27;19915;-74
2022/01/13 05:42:57;;;;;;;;;;;;;;;;;;5136092;27;19922;-75
2022/01/13 05:45:28;;;;;;;;;;;;;;;;;;5135950;27;19944;-74
2022/01/13 05:47:53;;;;;;;;;;;;;;;;;;5134809;27;19923;-74
2022/01/13 05:50:19;;;;;;;;;;;;;;;;;;5134431;27;19921;-74
2022/01/13 05:52:45;;;;;;;;;;;;;;;;;;5135774;27;20364;-74
2022/01/13 05:55:11;;;;;;;;;;;;;;;;;;5135307;27;19987;-74
2022/01/13 05:57:36;;;;;;;;;;;;;;;;;;5135684;27;19916;-74
2022/01/13 06:00:03;;;;;;;;;;;;;;;;;;5134897;27;19922;-74
2022/01/13 06:02:37;;;;;;;;;;;;;;;;;;5135549;27;20280;-74
2022/01/13 06:05:03;;;;;;;;;;;;;;;;;;5135028;27;19915;-74
2022/01/13 06:07:28;;;;;;;;;;;;;;;;;;5135027;27;19915;-74
2022/01/13 06:09:53;;;;;;;;;;;;;;;;;;5135598;27;19922;-74
2022/01/13 06:12:21;;;;;;;;;;;;;;;;;;5135553;27;19915;-74
2022/01/13 06:14:46;;;;;;;;;;;;;;;;;;5135340;27;19916;-74
2022/01/13 06:17:11;;;;;;;;;;;;;;;;;;5135365;27;19990;-74
2022/01/13 06:19:37;;;;;;;;;;;;;;;;;;5117089;27;19964;-74
2022/01/13 06:22:02;;;;;;;;;;;;;;;;;;5135310;27;19920;-74
2022/01/13 06:24:28;;;;;;;;;;;;;;;;;;5135477;27;20353;-74
2022/01/13 06:26:53;;;;;;;;;;;;;;;;;;5135281;27;19927;-74
2022/01/13 06:29:19;;;;;;;;;;;;;;;;;;5135339;27;19964;-74
2022/01/13 06:31:44;;;;;;;;;;;;;;;;;;5135080;27;19923;-74
2022/01/13 06:34:10;;;;;;;;;;;;;;;;;;5135164;27;19920;-74
2022/01/13 06:36:35;;;;;;;;;;;;;;;;;;5134987;27;19938;-74
2022/01/13 06:39:00;;;;;;;;;;;;;;;;;;5134903;27;20032;-74
2022/01/13 06:41:26;;;;;;;;;;;;;;;;;;5116466;27;19915;-74
2022/01/13 06:43:51;;;;;;;;;;;;;;;;;;5134826;27;19915;-74
2022/01/13 06:46:17;;;;;;;;;;;;;;;;;;5133691;27;20432;-74
2022/01/13 06:48:45;;;;;;;;;;;;;;;;;;5134454;27;20376;-74
2022/01/13 06:51:11;;;;;;;;;;;;;;;;;;5134928;27;19923;-74
2022/01/13 06:53:36;;;;;;;;;;;;;;;;;;5134665;27;19919;-74
2022/01/13 06:56:02;;;;;;;;;;;;;;;;;;5134827;27;19915;-74
2022/01/13 06:58:27;;;;;;;;;;;;;;;;;;5115935;28;19915;-74
2022/01/13 07:00:53;;;;;;;;;;;;;;;;;;5134749;27;19959;-74
2022/01/13 07:03:20;;;;;;;;;;;;;;;;;;5134056;28;19915;-74
2022/01/13 07:05:45;;;;;;;;;;;;;;;;;;5134737;28;20422;-74
2022/01/13 07:08:11;;;;;;;;;;;;;;;;;;5134798;27;19915;-73
2022/01/13 07:10:36;;;;;;;;;;;;;;;;;;5116529;28;19911;-72
2022/01/13 07:13:02;;;;;;;;;;;;;;;;;;5116336;28;19915;-73
2022/01/13 07:15:28;;;;;;;;;;;;;;;;;;5135844;28;19919;-75
2022/01/13 07:17:54;;;;;;;;;;;;;;;;;;5118413;28;19963;-75
2022/01/13 07:20:19;;;;;;;;;;;;;;;;;;5135266;28;19954;-74
2022/01/13 07:22:44;;;;;;;;;;;;;;;;;;5135471;28;19943;-75
2022/01/13 07:25:10;;;;;;;;;;;;;;;;;;5135037;28;19915;-74
2022/01/13 07:27:35;;;;;;;;;;;;;;;;;;5099664;28;19922;-74
2022/01/13 07:30:02;;;;;;;;;;;;;;;;;;5134915;28;20269;-74
2022/01/13 07:32:27;;;;;;;;;;;;;;;;;;5116890;28;19915;-73
2022/01/13 07:34:52;;;;;;;;;;;;;;;;;;5135077;28;19923;-74
2022/01/13 07:37:18;;;;;;;;;;;;;;;;;;5135110;27;19915;-74
2022/01/13 07:39:43;;;;;;;;;;;;;;;;;;5135019;28;19919;-74
2022/01/13 07:42:08;;;;;;;;;;;;;;;;;;5134887;28;19966;-74
2022/01/13 07:44:35;;;;;;;;;;;;;;;;;;5135047;28;19982;-74
2022/01/13 07:47:00;;;;;;;;;;;;;;;;;;5116835;27;19948;-74
2022/01/13 07:49:26;;;;;;;;;;;;;;;;;;5134081;28;19944;-74
2022/01/13 07:51:51;;;;;;;;;;;;;;;;;;5117269;28;19916;-75
2022/01/13 07:54:17;;;;;;;;;;;;;;;;;;5116033;28;20385;-75
2022/01/13 07:56:42;;;;;;;;;;;;;;;;;;5135556;28;19912;-78
2022/01/13 07:59:08;;;;;;;;;;;;;;;;;;5138159;27;19916;-76
2022/01/13 08:01:33;;;;;;;;;;;;;;;;;;5138394;27;19920;-77
2022/01/13 08:03:59;;;;;;;;;;;;;;;;;;5120175;27;19915;-76
2022/01/13 08:06:24;;;;;;;;;;;;;;;;;;5120895;27;19960;-76
2022/01/13 08:08:49;;;;;;;;;;;;;;;;;;5138355;27;19931;-76
2022/01/13 08:11:16;;;;;;;;;;;;;;;;;;5135632;27;19922;-75
2022/01/13 08:13:42;;;;;;;;;;;;;;;;;;5137688;27;19977;-76
2022/01/13 08:16:09;;;;;;;;;;;;;;;;;;5137729;27;20338;-76
2022/01/13 08:21:19;;;;;;;;;;;;;;;;;;5137668;27;19915;-76
2022/01/13 08:23:44;;;;;;;;;;;;;;;;;;5137431;27;19915;-77
2022/01/13 08:26:10;;;;;;;;;;;;;;;;;;5136686;27;19916;-73
2022/01/13 08:28:36;;;;;;;;;;;;;;;;;;5137095;27;19916;-73
2022/01/13 08:31:03;;;;;;;;;;;;;;;;;;5137740;27;19983;-75
2022/01/13 08:33:28;;;;;;;;;;;;;;;;;;5137522;27;20250;-74
2022/01/13 08:35:54;;;;;;;;;;;;;;;;;;5137962;27;19923;-74
2022/01/13 08:38:19;;;;;;;;;;;;;;;;;;5137498;27;20373;-74
2022/01/13 08:40:49;;;;;;;;;;;;;;;;;;5136917;27;19922;-75
2022/01/13 08:43:15;;;;;;;;;;;;;;;;;;5119287;27;19915;-75
2022/01/13 08:45:41;;;;;;;;;;;;;;;;;;5137411;27;19923;-75
2022/01/13 08:48:06;;;;;;;;;;;;;;;;;;5137749;27;19923;-75
2022/01/13 08:50:31;;;;;;;;;;;;;;;;;;5119693;27;19941;-75
2022/01/13 08:52:57;;;;;;;;;;;;;;;;;;5137838;27;19989;-76
2022/01/13 08:55:22;;;;;;;;;;;;;;;;;;5119166;27;19926;-76
2022/01/13 08:57:47;;;;;;;;;;;;;;;;;;5118960;27;19915;-76
2022/01/13 09:00:13;;;;;;;;;;;;;;;;;;5118712;27;20013;-75
2022/01/13 09:02:42;;;;;;;;;;;;;;;;;;5135949;27;20002;-76
2022/01/13 09:05:07;;;;;;;;;;;;;;;;;;5136691;27;19922;-76
2022/01/13 09:07:33;;;;;;;;;;;;;;;;;;5136901;27;19919;-76
2022/01/13 09:09:58;;;;;;;;;;;;;;;;;;5136435;27;19954;-76
2022/01/13 09:12:24;;;;;;;;;;;;;;;;;;5136833;27;19951;-76
2022/01/13 09:14:51;;;;;;;;;;;;;;;;;;5136704;27;20420;-76
2022/01/13 09:17:22;;;;;;;;;;;;;;;;;;5118321;27;19916;-76
2022/01/13 09:19:48;;;;;;;;;;;;;;;;;;5136622;27;20391;-76
2022/01/13 09:22:13;;;;;;;;;;;;;;;;;;5136589;27;19954;-76
2022/01/13 09:24:38;;;;;;;;;;;;;;;;;;5134086;27;20463;-76
2022/01/13 09:27:05;;;;;;;;;;;;;;;;;;5135863;27;19960;-76
2022/01/13 09:29:30;;;;;;;;;;;;;;;;;;5136606;27;19922;-76
2022/01/13 09:31:55;;;;;;;;;;;;;;;;;;5136474;27;19916;-76
2022/01/13 09:34:21;;;;;;;;;;;;;;;;;;5136213;27;20270;-76
2022/01/13 09:36:46;;;;;;;;;;;;;;;;;;5136140;27;19934;-77
2022/01/13 09:39:11;;;;;;;;;;;;;;;;;;5136225;27;19915;-76
2022/01/13 09:41:40;;;;;;;;;;;;;;;;;;5136243;27;19915;-76
2022/01/13 09:44:05;;;;;;;;;;;;;;;;;;5136309;27;19949;-76
2022/01/13 09:46:34;;;;;;;;;;;;;;;;;;5136416;27;19915;-76
2022/01/13 09:49:04;;;;;;;;;;;;;;;;;;5135082;27;20345;-76
2022/01/13 09:51:30;;;;;;;;;;;;;;;;;;5117774;27;19915;-76
2022/01/13 09:53:56;;;;;;;;;;;;;;;;;;5136074;27;19919;-76
2022/01/13 09:56:21;;;;;;;;;;;;;;;;;;5117435;27;19915;-76
2022/01/13 09:58:47;;;;;;;;;;;;;;;;;;5117481;27;19923;-76
2022/01/13 10:01:13;;;;;;;;;;;;;;;;;;5135920;27;20072;-76
2022/01/13 10:03:38;;;;;;;;;;;;;;;;;;5134926;27;19923;-76
2022/01/13 10:06:11;;;;;;;;;;;;;;;;;;5135416;27;20293;-74
2022/01/13 10:08:56;;;;;;;;;;;;;;;;;;5135559;27;19922;-76
2022/01/13 10:11:24;;;;;;;;;;;;;;;;;;5135661;27;20022;-76
2022/01/13 10:14:06;;;;;;;;;;;;;;;;;;5135306;27;19925;-76
2022/01/13 10:16:32;;;;;;;;;;;;;;;;;;5134859;27;19919;-76
2022/01/13 10:18:57;;;;;;;;;;;;;;;;;;5135421;27;20384;-75
2022/01/13 10:21:22;;;;;;;;;;;;;;;;;;5134739;27;19922;-76
2022/01/13 10:24:09;;;;;;;;;;;;;;;;;;5134806;27;19916;-76
2022/01/13 10:26:35;;;;;;;;;;;;;;;;;;5134975;27;19916;-76
2022/01/13 10:29:00;;;;;;;;;;;;;;;;;;5134973;27;19916;-76
2022/01/13 10:31:45;;;;;;;;;;;;;;;;;;5134605;27;19922;-76
2022/01/13 10:34:17;;;;;;;;;;;;;;;;;;5116714;27;19919;-76
2022/01/13 10:36:58;;;;;;;;;;;;;;;;;;5135192;27;19926;-76
2022/01/13 10:39:42;;;;;;;;;;;;;;;;;;5116734;27;20381;-76
2022/01/13 10:44:59;;;;;;;;;;;;;;;;;;5111082;27;19922;-76
2022/01/13 10:47:28;;;;;;;;;;;;;;;;;;5134883;27;19915;-77
2022/01/13 10:49:58;;;;;;;;;;;;;;;;;;5135032;27;20368;-76
2022/01/13 10:52:26;;;;;;;;;;;;;;;;;;5135138;27;19926;-76
2022/01/13 10:54:58;;;;;;;;;;;;;;;;;;5134987;27;19920;-76
2022/01/13 10:57:24;;;;;;;;;;;;;;;;;;5134856;27;20268;-76
2022/01/13 10:59:49;;;;;;;;;;;;;;;;;;5134843;27;19911;-76
2022/01/13 11:02:15;;;;;;;;;;;;;;;;;;5134198;27;19922;-76
2022/01/13 11:04:40;;;;;;;;;;;;;;;;;;5127886;28;19916;-74
2022/01/13 11:07:12;;;;;;;;;;;;;;;;;;5114885;28;20270;-81
2022/01/13 11:09:42;;;;;;;;;;;;;;;;;;5113652;28;19915;-77
2022/01/13 11:12:08;;;;;;;;;;;;;;;;;;5113362;28;19922;-77
2022/01/13 11:14:40;;;;;;;;;;;;;;;;;;5113797;28;19923;-75
2022/01/13 11:17:06;;;;;;;;;;;;;;;;;;5120844;28;19922;-80
2022/01/13 11:19:32;;;;;;;;;;;;;;;;;;5121031;28;20265;-78
2022/01/13 11:21:57;;;;;;;;;;;;;;;;;;5140507;28;19975;-80
2022/01/13 11:24:23;;;;;;;;;;;;;;;;;;5124991;28;19972;-78
2022/01/13 11:26:49;;;;;;;;;;;;;;;;;;5126340;28;19915;-81
2022/01/13 11:29:16;;;;;;;;;;;;;;;;;;5145844;28;19999;-79
2022/01/13 11:31:42;;;;;;;;;;;;;;;;;;5143356;28;19926;-79
2022/01/13 11:34:08;;;;;;;;;;;;;;;;;;5143524;27;19919;-78
2022/01/13 11:36:34;;;;;;;;;;;;;;;;;;5144445;27;19931;-81
2022/01/13 11:39:01;;;;;;;;;;;;;;;;;;5127618;27;19915;-81
2022/01/13 11:41:27;;;;;;;;;;;;;;;;;;5144933;27;19954;-79
2022/01/13 11:43:52;;;;;;;;;;;;;;;;;;5145364;27;19919;-79
2022/01/13 11:46:19;;;;;;;;;;;;;;;;;;5111596;27;20380;-77
2022/01/13 11:49:08;;;;;;;;;;;;;;;;;;5139326;27;19920;-79
2022/01/13 11:52:29;;;;;;;;;;;;;;;;;;5144511;27;19919;-80
2022/01/13 11:54:48;;;;;;;;;;;;;;;;;;5127570;27;19984;-80
2022/01/13 11:57:13;;;;;;;;;;;;;;;;;;5128182;27;19915;-79
2022/01/13 11:59:39;;;;;;;;;;;;;;;;;;5146551;27;19916;-78
2022/01/13 12:02:24;;;;;;;;;;;;;;;;;;5141045;27;19969;-77
2022/01/13 12:05:01;;;;;;;;;;;;;;;;;;5117563;28;19916;-77
2022/01/13 12:07:34;;;;;;;;;;;;;;;;;;5119671;28;19923;-77
2022/01/13 12:09:59;;;;;;;;;;;;;;;;;;5102539;28;19999;-77
2022/01/13 12:12:28;;;;;;;;;;;;;;;;;;5111212;27;19947;-77
2022/01/13 12:15:13;;;;;;;;;;;;;;;;;;5137709;27;19924;-76
2022/01/13 12:17:44;;;;;;;;;;;;;;;;;;5125010;27;20423;-77
2022/01/13 12:20:23;;;;;;;;;;;;;;;;;;5113604;27;19950;-77
2022/01/13 12:22:58;;;;;;;;;;;;;;;;;;5124777;27;19916;-77
2022/01/13 12:25:31;;;;;;;;;;;;;;;;;;5129986;27;19920;-77
2022/01/13 12:27:57;;;;;;;;;;;;;;;;;;5122908;28;19960;-77
2022/01/13 12:30:25;;;;;;;;;;;;;;;;;;5123678;28;19971;-77
2022/01/13 12:32:52;;;;;;;;;;;;;;;;;;5140714;27;19923;-77
2022/01/13 12:35:37;;;;;;;;;;;;;;;;;;5123681;27;19926;-77
2022/01/13 12:38:04;;;;;;;;;;;;;;;;;;5123525;27;19937;-77
2022/01/13 12:40:33;;;;;;;;;;;;;;;;;;5141365;27;19919;-77
2022/01/13 12:43:12;;;;;;;;;;;;;;;;;;5130104;27;20005;-77
2022/01/13 12:45:37;;;;;;;;;;;;;;;;;;5113396;28;19916;-77
2022/01/13 12:48:02;;;;;;;;;;;;;;;;;;5123438;28;19920;-77
2022/01/13 12:50:33;;;;;;;;;;;;;;;;;;5140794;27;19982;-77
2022/01/13 12:53:06;;;;;;;;;;;;;;;;;;5124605;28;19916;-77
2022/01/13 12:55:32;;;;;;;;;;;;;;;;;;5123636;28;19975;-77
2022/01/13 12:57:57;;;;;;;;;;;;;;;;;;5138905;27;19943;-77
2022/01/13 13:00:24;;;;;;;;;;;;;;;;;;5128190;27;20132;-77
2022/01/13 13:02:57;;;;;;;;;;;;;;;;;;5116628;27;19911;-78
2022/01/13 13:05:30;;;;;;;;;;;;;;;;;;5141396;27;20311;-77
2022/01/13 13:07:55;;;;;;;;;;;;;;;;;;5118806;27;19951;-77
2022/01/13 13:10:21;;;;;;;;;;;;;;;;;;5135942;27;20376;-77
2022/01/13 13:12:50;;;;;;;;;;;;;;;;;;5128800;27;20018;-77
2022/01/13 13:17:46;;;;;;;;;;;;;;;;;;5118068;27;19919;-77
2022/01/13 13:20:23;;;;;;;;;;;;;;;;;;5134498;27;19969;-77
2022/01/13 13:22:49;;;;;;;;;;;;;;;;;;5117877;27;19916;-77
2022/01/13 13:25:26;;;;;;;;;;;;;;;;;;5125184;27;19923;-77
2022/01/13 13:27:51;;;;;;;;;;;;;;;;;;5110899;28;19916;-77
2022/01/13 13:30:17;;;;;;;;;;;;;;;;;;5101948;28;19923;-77
2022/01/13 13:32:49;;;;;;;;;;;;;;;;;;5124162;27;19938;-77
2022/01/13 13:35:14;;;;;;;;;;;;;;;;;;5120275;28;19919;-77
2022/01/13 13:37:44;;;;;;;;;;;;;;;;;;5122366;27;19922;-78
2022/01/13 13:40:18;;;;;;;;;;;;;;;;;;5122098;27;19924;-77
2022/01/13 13:42:44;;;;;;;;;;;;;;;;;;5103789;27;19923;-77
2022/01/13 13:45:10;;;;;;;;;;;;;;;;;;5113887;27;20510;-77
2022/01/13 13:47:35;;;;;;;;;;;;;;;;;;5129641;27;19935;-77
2022/01/13 13:50:01;;;;;;;;;;;;;;;;;;5131008;27;19916;-77
2022/01/13 13:52:27;;;;;;;;;;;;;;;;;;5107903;28;20369;-77
2022/01/13 13:54:52;;;;;;;;;;;;;;;;;;5118389;27;20006;-77
2022/01/13 13:57:19;;;;;;;;;;;;;;;;;;5124171;27;19915;-77
2022/01/13 13:59:53;;;;;;;;;;;;;;;;;;5131553;27;19923;-77
2022/01/13 14:02:25;;;;;;;;;;;;;;;;;;5132893;27;19916;-77
2022/01/13 14:04:54;;;;;;;;;;;;;;;;;;5124546;27;19959;-77
2022/01/13 14:07:29;;;;;;;;;;;;;;;;;;5102781;27;19922;-77
2022/01/13 14:09:59;;;;;;;;;;;;;;;;;;5120480;27;19949;-77
2022/01/13 14:12:27;;;;;;;;;;;;;;;;;;5133096;27;20381;-77
2022/01/13 14:14:52;;;;;;;;;;;;;;;;;;5126119;27;19927;-77
2022/01/13 14:17:28;;;;;;;;;;;;;;;;;;5136482;27;20361;-77
2022/01/13 14:20:13;;;;;;;;;;;;;;;;;;5140707;27;19980;-77
2022/01/13 14:22:41;;;;;;;;;;;;;;;;;;5139930;27;19996;-77
2022/01/13 14:25:10;;;;;;;;;;;;;;;;;;5124619;27;19912;-77
2022/01/13 14:27:48;;;;;;;;;;;;;;;;;;5132276;27;19942;-77
2022/01/13 14:30:23;;;;;;;;;;;;;;;;;;5124788;27;20291;-77
2022/01/13 14:32:48;;;;;;;;;;;;;;;;;;5131178;27;19986;-77
2022/01/13 14:35:14;;;;;;;;;;;;;;;;;;5120058;28;19955;-77
2022/01/13 14:37:52;;;;;;;;;;;;;;;;;;5117849;27;20298;-77
2022/01/13 14:40:18;;;;;;;;;;;;;;;;;;5139937;27;19974;-77
2022/01/13 14:42:45;;;;;;;;;;;;;;;;;;5109608;28;19920;-77
2022/01/13 14:45:24;;;;;;;;;;;;;;;;;;5128314;27;19915;-77
2022/01/13 14:47:50;;;;;;;;;;;;;;;;;;5098128;28;20010;-77
2022/01/13 14:50:15;;;;;;;;;;;;;;;;;;5116581;28;19916;-77
2022/01/13 14:52:41;;;;;;;;;;;;;;;;;;5103715;28;19942;-77
2022/01/13 14:55:06;;;;;;;;;;;;;;;;;;5110920;28;19920;-75
2022/01/13 14:57:32;;;;;;;;;;;;;;;;;;5105755;28;19916;-75
2022/01/13 14:59:57;;;;;;;;;;;;;;;;;;5098949;28;19916;-75
2022/01/13 15:02:22;;;;;;;;;;;;;;;;;;5100424;28;19916;-75
2022/01/13 15:04:48;;;;;;;;;;;;;;;;;;5106097;28;19916;-74
2022/01/13 15:07:13;;;;;;;;;;;;;;;;;;5114695;28;19915;-75
2022/01/13 15:09:39;;;;;;;;;;;;;;;;;;5114579;28;19958;-75
2022/01/13 15:12:04;;;;;;;;;;;;;;;;;;5114645;28;20369;-74
2022/01/13 15:14:29;;;;;;;;;;;;;;;;;;5114374;28;19919;-73
2022/01/13 15:16:55;;;;;;;;;;;;;;;;;;5113695;28;20345;-75
2022/01/13 15:19:22;;;;;;;;;;;;;;;;;;5115213;28;19915;-75
2022/01/13 15:21:47;;;;;;;;;;;;;;;;;;5114024;28;20250;-75
2022/01/13 15:24:12;;;;;;;;;;;;;;;;;;5115371;28;20018;-75
2022/01/13 15:26:38;;;;;;;;;;;;;;;;;;5114953;28;19923;-75
2022/01/13 15:29:03;;;;;;;;;;;;;;;;;;5117319;28;20755;-75
2022/01/13 15:31:29;;;;;;;;;;;;;;;;;;5116101;28;19923;-74
2022/01/13 15:33:54;;;;;;;;;;;;;;;;;;5115367;28;19920;-74
2022/01/13 15:36:20;;;;;;;;;;;;;;;;;;5116948;28;19916;-74
2022/01/13 15:38:46;;;;;;;;;;;;;;;;;;5116831;28;19920;-74
2022/01/13 15:41:11;;;;;;;;;;;;;;;;;;5117165;28;20448;-74
2022/01/13 15:43:36;;;;;;;;;;;;;;;;;;5116793;28;19916;-74
2022/01/13 15:46:02;;;;;;;;;;;;;;;;;;5116247;28;19916;-74
2022/01/13 15:48:27;;;;;;;;;;;;;;;;;;5126741;28;19998;-74
2022/01/13 15:50:55;;;;;;;;;;;;;;;;;;5137815;28;20387;-74
2022/01/13 15:53:20;;;;;;;;;;;;;;;;;;5138084;28;19955;-75
2022/01/13 15:55:46;;;;;;;;;;;;;;;;;;5137930;28;19955;-75
2022/01/13 15:58:11;;;;;;;;;;;;;;;;;;5138372;27;20242;-74
2022/01/13 16:00:38;;;;;;;;;;;;;;;;;;5137692;28;19922;-74
2022/01/13 16:03:04;;;;;;;;;;;;;;;;;;5138212;28;19915;-75
2022/01/13 16:05:29;;;;;;;;;;;;;;;;;;5138257;28;19954;-74
2022/01/13 16:07:54;;;;;;;;;;;;;;;;;;5119737;28;19939;-74
2022/01/13 16:10:19;;;;;;;;;;;;;;;;;;5103154;28;19923;-74
2022/01/13 16:12:45;;;;;;;;;;;;;;;;;;5118887;28;19921;-75
2022/01/13 16:15:13;;;;;;;;;;;;;;;;;;5136675;28;19954;-74
2022/01/13 16:17:39;;;;;;;;;;;;;;;;;;5137534;28;19912;-74
2022/01/13 16:20:04;;;;;;;;;;;;;;;;;;5139259;27;19937;-74
2022/01/13 16:22:30;;;;;;;;;;;;;;;;;;5141743;27;20380;-74
2022/01/13 16:24:55;;;;;;;;;;;;;;;;;;5141855;27;19946;-74
2022/01/13 16:27:20;;;;;;;;;;;;;;;;;;5123770;27;19916;-74
2022/01/13 16:29:55;;;;;;;;;;;;;;;;;;5139776;27;20268;-74
2022/01/13 16:32:22;;;;;;;;;;;;;;;;;;5128373;27;19915;-74
2022/01/13 16:34:47;;;;;;;;;;;;;;;;;;5139064;27;19920;-74
2022/01/13 16:37:12;;;;;;;;;;;;;;;;;;5139238;27;19922;-74
2022/01/13 16:39:38;;;;;;;;;;;;;;;;;;5122414;27;20376;-74
2022/01/13 16:42:03;;;;;;;;;;;;;;;;;;5138864;27;19919;-74
2022/01/13 16:44:29;;;;;;;;;;;;;;;;;;5138818;27;19916;-75
2022/01/13 16:46:55;;;;;;;;;;;;;;;;;;5138845;27;19916;-75
2022/01/13 16:49:20;;;;;;;;;;;;;;;;;;5121526;27;19925;-75
2022/01/13 16:51:45;;;;;;;;;;;;;;;;;;5139694;27;19981;-74
2022/01/13 16:54:12;;;;;;;;;;;;;;;;;;5139996;27;20280;-74
2022/01/13 16:56:38;;;;;;;;;;;;;;;;;;5121791;27;19923;-74
2022/01/13 16:59:03;;;;;;;;;;;;;;;;;;5121584;27;19941;-74
2022/01/13 17:01:29;;;;;;;;;;;;;;;;;;5140196;27;20349;-74
2022/01/13 17:03:54;;;;;;;;;;;;;;;;;;5139463;27;19922;-74
2022/01/13 17:06:19;;;;;;;;;;;;;;;;;;5122278;27;19912;-75
2022/01/13 17:08:45;;;;;;;;;;;;;;;;;;5138495;27;19934;-74